Air Resources Laboratory banner image
Air Resources Laboratory web site National Oceanic and Atmospheric Administration (NOAA)

sd metar


K2WX 211756Z AUTO 11007KT 17/06 A3030 RMK AO1 SLP257 T01670056 10172 20111
 52000=
K8D3 211756Z AUTO 33006KT 21/11 A3020 RMK AO1 SLP220 T02110111 10211 20139
 50002=
K9V9 211755Z AUTO 34005KT 10SM CLR 21/09 A3027 RMK AO2 T02070085 10209 20150=
KABR 211753Z AUTO 06006KT 10SM CLR 22/07 A3024 RMK AO2 SLP239 T02220072 10233
 20133 58000=
KATY 211753Z AUTO 35012G18KT 10SM CLR 21/08 A3022 RMK AO2 SLP231 60001
 T02060078 10211 20128 51005=
KBKX 211756Z AUTO 03011KT 10SM FEW085 19/10 A3022 RMK AO2 SLP247 T01890100
 10189 20128 50009=
KCUT 211753Z AUTO VRB03KT 10SM OVC017 12/06 A3038 RMK AO2 SLP253 T01170061
 10117 20072 53008=
KD07 211756Z AUTO 17009KT 19/07 A3031 RMK AO1 SLP262 T01940067 10194 20117
 58001=
KFSD 211756Z 35014KT 10SM SCT120 OVC250 20/13 A3021 RMK AO2 SLP229 T02000133
 10206 20156 53013=
KHON 211755Z AUTO VRB05G15KT 10SM CLR 22/09 A3024 RMK AO2 SLP238 60000
 T02220089 10228 20128 50004=
KIEN 211752Z AUTO 09008KT 10SM BKN028 OVC075 17/11 A3032 RMK AO2 SLP260
 T01720111 10172 20100 51005=
KLUD 211755Z AUTO 00000KT 7SM CLR 30/17 A3015 RMK AO2 T03020169 10302 20206=
KMBG 211752Z AUTO 28007KT 10SM CLR 23/08 A3026 RMK AO2 SLP240 T02330078 10233
 20139 58003=
KMHE 211753Z AUTO 36012G18KT 10SM CLR 23/10 A3025 RMK AO2 SLP240 T02280100
 10228 20139 50008=
KPHP 211755Z AUTO 14003KT 10SM FEW060 BKN085 19/08 A3030 RMK AO2 SLP251
 T01890078 10189 20128 58002=
KPIR 211753Z AUTO VRB03KT 10SM CLR 21/07 A3026 RMK AO2 SLP242 60002 T02110072
 10217 20122 58004=
KRAP 211752Z 16008KT 10SM SCT044 17/09 A3034 RMK AO2 SLP265 T01720089 10172
 20106 55001=
KRCA 211756Z 13005KT 10SM BKN027 BKN190 17/10 A3032 RMK AO2A BKN027 V SCT
 SLP262 T01690096 10170 20111 58002 $=
KSPF 211755Z AUTO 09009KT 10SM CLR 15/10 A3031 RMK AO2 PWINO=
KYKN 211756Z AUTO 32011KT 10SM CLR 21/14 A3022 RMK AO2 SLP243 T02060144 10206
 20139 53007=